createdAt,value
2018-05-09T00:00:30.122Z,0.00
2018-05-09T00:01:30.021Z,0.00
2018-05-09T00:02:29.933Z,0.00
2018-05-09T00:03:29.874Z,0.00
2018-05-09T00:04:29.853Z,0.00
2018-05-09T00:05:29.662Z,0.00
2018-05-09T00:06:29.580Z,0.00
2018-05-09T00:07:29.485Z,0.00
2018-05-09T00:08:29.425Z,0.00
2018-05-09T00:09:29.304Z,0.00
2018-05-09T00:10:29.213Z,0.00
2018-05-09T00:11:29.126Z,0.00
2018-05-09T00:12:29.036Z,0.00
2018-05-09T00:13:28.977Z,0.00
2018-05-09T00:14:28.856Z,0.00
2018-05-09T00:15:28.772Z,0.00
2018-05-09T00:16:28.677Z,0.00
2018-05-09T00:17:28.589Z,0.00
2018-05-09T00:18:28.533Z,0.00
2018-05-09T00:19:28.408Z,0.00
2018-05-09T00:20:28.318Z,0.00
2018-05-09T00:21:28.239Z,0.00
2018-05-09T00:22:28.139Z,0.00
2018-05-09T00:23:28.079Z,0.00
2018-05-09T00:24:27.965Z,0.00
2018-05-09T00:25:27.872Z,0.00
2018-05-09T00:26:27.782Z,0.00
2018-05-09T00:27:27.692Z,0.00
2018-05-09T00:28:27.632Z,0.00
2018-05-09T00:29:27.513Z,0.00
2018-05-09T00:30:27.425Z,0.00
2018-05-09T00:31:27.337Z,0.00
2018-05-09T00:32:27.243Z,0.00
2018-05-09T00:33:27.188Z,0.00
2018-05-09T00:34:27.066Z,0.00
2018-05-09T00:35:26.975Z,0.00
2018-05-09T00:36:26.886Z,0.00
2018-05-09T00:37:26.795Z,0.00
2018-05-09T00:38:26.738Z,0.00
2018-05-09T00:39:26.614Z,0.00
2018-05-09T00:40:26.527Z,0.00
2018-05-09T00:41:26.436Z,0.00
2018-05-09T00:42:26.360Z,0.00
2018-05-09T00:43:26.292Z,0.00
2018-05-09T00:44:26.169Z,0.00
2018-05-09T00:45:26.079Z,0.00
2018-05-09T00:46:25.990Z,0.00
2018-05-09T00:47:25.900Z,0.00
2018-05-09T00:48:25.841Z,0.00
2018-05-09T00:49:25.718Z,0.00
2018-05-09T00:50:25.628Z,0.00
2018-05-09T00:51:25.540Z,0.00
2018-05-09T00:52:25.468Z,0.00
2018-05-09T00:53:25.378Z,0.00
2018-05-09T00:54:25.296Z,0.00
2018-05-09T00:55:25.176Z,0.00
2018-05-09T00:56:25.086Z,0.00
2018-05-09T00:57:24.997Z,0.00
2018-05-09T00:58:24.908Z,0.00
2018-05-09T00:59:24.846Z,0.00
2018-05-09T01:00:24.732Z,0.00
2018-05-09T01:01:24.636Z,0.00
2018-05-09T01:02:24.548Z,0.00
2018-05-09T01:03:24.460Z,0.00
2018-05-09T01:04:24.399Z,0.00
2018-05-09T01:05:24.276Z,0.00
2018-05-09T01:06:24.185Z,0.00
2018-05-09T01:07:24.095Z,0.00
2018-05-09T01:08:24.007Z,0.00
2018-05-09T01:09:23.944Z,0.00
2018-05-09T01:10:23.828Z,0.00
2018-05-09T01:11:23.732Z,0.00
2018-05-09T01:12:23.642Z,0.00
2018-05-09T01:13:23.632Z,0.00
2018-05-09T01:14:23.507Z,0.00
2018-05-09T01:15:23.372Z,0.00
2018-05-09T01:16:23.281Z,0.00
2018-05-09T01:17:23.191Z,0.00
2018-05-09T01:18:23.102Z,0.00
2018-05-09T01:19:23.041Z,0.00
2018-05-09T01:20:22.918Z,0.00
2018-05-09T01:21:22.826Z,0.00
2018-05-09T01:22:22.737Z,0.00
2018-05-09T01:23:22.648Z,0.00
2018-05-09T01:24:22.590Z,0.00
2018-05-09T01:25:22.468Z,0.00
2018-05-09T01:26:22.377Z,0.00
2018-05-09T01:27:22.287Z,0.00
2018-05-09T01:28:22.195Z,0.00
2018-05-09T01:29:22.141Z,0.00
2018-05-09T01:30:22.022Z,0.00
2018-05-09T01:31:21.925Z,0.00
2018-05-09T01:32:21.831Z,0.00
2018-05-09T01:33:21.740Z,0.00
2018-05-09T01:34:21.681Z,0.00
2018-05-09T01:35:21.565Z,0.00
2018-05-09T01:36:21.471Z,0.00
2018-05-09T01:37:21.379Z,0.00
2018-05-09T01:38:21.292Z,0.00
2018-05-09T01:39:21.232Z,0.00
2018-05-09T01:40:21.109Z,0.00
2018-05-09T01:41:21.021Z,0.00
2018-05-09T01:42:20.931Z,0.00
2018-05-09T01:43:20.839Z,0.00
2018-05-09T01:44:20.780Z,0.00
2018-05-09T01:45:20.677Z,0.00
2018-05-09T01:46:20.570Z,0.00
2018-05-09T01:47:20.478Z,0.00
2018-05-09T01:48:20.490Z,0.00
2018-05-09T01:49:20.329Z,0.00
2018-05-09T01:50:20.210Z,0.00
2018-05-09T01:51:20.117Z,0.00
2018-05-09T01:52:20.031Z,0.00
2018-05-09T01:53:19.942Z,0.00
2018-05-09T01:54:19.882Z,0.00
2018-05-09T01:55:19.851Z,0.00
2018-05-09T01:56:19.667Z,0.00
2018-05-09T01:57:19.575Z,0.00
2018-05-09T01:58:19.486Z,0.00
2018-05-09T01:59:19.435Z,0.00
2018-05-09T02:00:19.310Z,0.00
2018-05-09T02:01:19.217Z,0.00
2018-05-09T02:02:19.224Z,0.00
2018-05-09T02:03:19.040Z,0.00
2018-05-09T02:04:18.949Z,0.00
2018-05-09T02:05:18.887Z,0.00
2018-05-09T02:06:18.767Z,0.00
2018-05-09T02:07:18.676Z,0.00
2018-05-09T02:08:18.589Z,0.00
2018-05-09T02:09:18.593Z,0.00
2018-05-09T02:10:18.436Z,0.00
2018-05-09T02:11:18.320Z,0.00
2018-05-09T02:12:18.229Z,0.00
2018-05-09T02:13:18.135Z,0.00
2018-05-09T02:14:18.051Z,0.00
2018-05-09T02:15:18.019Z,0.00
2018-05-09T02:16:17.883Z,0.00
2018-05-09T02:17:17.779Z,0.00
2018-05-09T02:18:17.688Z,0.00
2018-05-09T02:19:17.599Z,0.00
2018-05-09T02:20:17.541Z,0.00
2018-05-09T02:21:17.420Z,0.00
2018-05-09T02:22:17.330Z,0.00
2018-05-09T02:23:17.239Z,0.00
2018-05-09T02:24:17.150Z,0.00
2018-05-09T02:25:17.089Z,0.00
2018-05-09T02:26:16.970Z,0.00
2018-05-09T02:27:16.898Z,0.00
2018-05-09T02:28:16.791Z,0.00
2018-05-09T02:29:16.698Z,0.00
2018-05-09T02:30:16.647Z,0.00
2018-05-09T02:31:16.594Z,0.00
2018-05-09T02:32:16.432Z,0.00
2018-05-09T02:33:16.343Z,0.00
2018-05-09T02:34:16.251Z,0.00
2018-05-09T02:35:16.192Z,0.00
2018-05-09T02:36:16.068Z,0.00
2018-05-09T02:37:15.982Z,0.00
2018-05-09T02:38:15.895Z,0.00
2018-05-09T02:39:15.807Z,0.00
2018-05-09T02:40:15.742Z,0.00
2018-05-09T02:41:15.625Z,0.00
2018-05-09T02:42:15.534Z,0.00
2018-05-09T02:43:15.443Z,0.00
2018-05-09T02:44:15.354Z,0.00
2018-05-09T02:45:15.294Z,0.00
2018-05-09T02:46:15.174Z,0.00
2018-05-09T02:47:15.091Z,0.00
2018-05-09T02:48:14.998Z,0.00
2018-05-09T02:49:14.907Z,0.00
2018-05-09T02:50:14.848Z,0.00
2018-05-09T02:51:14.728Z,0.00
2018-05-09T02:52:14.637Z,0.00
2018-05-09T02:53:14.547Z,0.00
2018-05-09T02:54:14.456Z,0.00
2018-05-09T02:55:14.409Z,0.00
2018-05-09T02:56:14.275Z,0.00
2018-05-09T02:57:14.188Z,0.00
2018-05-09T02:58:14.097Z,0.00
2018-05-09T02:59:14.233Z,0.00
2018-05-09T03:00:13.949Z,0.00
2018-05-09T03:01:13.833Z,0.00
2018-05-09T03:02:13.742Z,0.00
2018-05-09T03:03:13.649Z,0.00
2018-05-09T03:04:13.558Z,0.00
2018-05-09T03:05:13.501Z,0.00
2018-05-09T03:06:13.476Z,0.00
2018-05-09T03:07:13.290Z,0.00
2018-05-09T03:08:13.197Z,0.00
2018-05-09T03:09:13.118Z,0.00
2018-05-09T03:10:13.056Z,0.00
2018-05-09T03:11:12.931Z,0.00
2018-05-09T03:12:12.837Z,0.00
2018-05-09T03:13:12.748Z,0.00
2018-05-09T03:14:12.661Z,0.00
2018-05-09T03:15:12.573Z,0.00
2018-05-09T03:16:12.510Z,0.00
2018-05-09T03:17:12.389Z,0.00
2018-05-09T03:18:12.298Z,0.00
2018-05-09T03:19:12.207Z,0.00
2018-05-09T03:20:12.226Z,0.00
2018-05-09T03:21:12.060Z,0.00
2018-05-09T03:22:11.938Z,5.63
2018-05-09T03:23:11.849Z,5.63
2018-05-09T03:24:11.760Z,5.63
2018-05-09T03:25:11.672Z,5.63
2018-05-09T03:26:11.705Z,5.63
2018-05-09T03:27:11.489Z,5.63
2018-05-09T03:28:11.399Z,11.25
2018-05-09T03:29:11.311Z,11.25
2018-05-09T03:30:11.235Z,11.25
2018-05-09T03:31:11.161Z,11.25
2018-05-09T03:32:11.042Z,16.88
2018-05-09T03:33:10.955Z,16.88
2018-05-09T03:34:10.860Z,16.88
2018-05-09T03:35:10.770Z,16.88
2018-05-09T03:36:10.707Z,16.88
2018-05-09T03:37:10.588Z,16.88
2018-05-09T03:38:10.499Z,22.50
2018-05-09T03:39:10.408Z,22.50
2018-05-09T03:40:10.345Z,22.50
2018-05-09T03:41:10.256Z,22.50
2018-05-09T03:42:10.139Z,28.13
2018-05-09T03:43:10.051Z,28.13
2018-05-09T03:44:09.957Z,28.13
2018-05-09T03:45:09.868Z,33.75
2018-05-09T03:46:09.809Z,33.75
2018-05-09T03:47:09.686Z,33.75
2018-05-09T03:48:09.595Z,39.38
2018-05-09T03:49:09.508Z,39.38
2018-05-09T03:50:09.417Z,45.00
2018-05-09T03:51:09.377Z,45.00
2018-05-09T03:52:09.239Z,50.63
2018-05-09T03:53:09.146Z,56.25
2018-05-09T03:54:09.056Z,56.25
2018-05-09T03:55:08.965Z,61.88
2018-05-09T03:56:08.909Z,61.88
2018-05-09T03:57:08.787Z,67.50
2018-05-09T03:58:08.697Z,73.13
2018-05-09T03:59:08.606Z,73.13
2018-05-09T04:00:08.517Z,78.75
2018-05-09T04:01:08.457Z,78.75
2018-05-09T04:02:08.338Z,84.38
2018-05-09T04:03:08.244Z,84.38
2018-05-09T04:04:08.156Z,84.38
2018-05-09T04:05:08.065Z,84.38
2018-05-09T04:06:08.009Z,84.38
2018-05-09T04:07:07.961Z,84.38
2018-05-09T04:08:07.794Z,84.38
2018-05-09T04:09:07.707Z,84.38
2018-05-09T04:10:07.613Z,84.38
2018-05-09T04:11:07.553Z,84.38
2018-05-09T04:12:07.427Z,84.38
2018-05-09T04:13:07.380Z,84.38
2018-05-09T04:14:07.252Z,84.38
2018-05-09T04:15:07.161Z,90.00
2018-05-09T04:16:07.070Z,90.00
2018-05-09T04:17:07.009Z,90.00
2018-05-09T04:18:06.892Z,90.00
2018-05-09T04:19:06.797Z,90.00
2018-05-09T04:20:06.706Z,95.63
2018-05-09T04:21:06.617Z,95.63
2018-05-09T04:22:06.557Z,95.63
2018-05-09T04:23:06.435Z,95.63
2018-05-09T04:24:06.351Z,95.63
2018-05-09T04:25:06.254Z,95.63
2018-05-09T04:26:06.164Z,95.63
2018-05-09T04:27:06.109Z,95.63
2018-05-09T04:28:06.034Z,95.63
2018-05-09T04:29:05.895Z,101.25
2018-05-09T04:30:05.800Z,101.25
2018-05-09T04:31:05.715Z,106.88
2018-05-09T04:32:05.654Z,112.50
2018-05-09T04:33:05.529Z,118.13
2018-05-09T04:34:05.439Z,123.75
2018-05-09T04:35:05.349Z,135.00
2018-05-09T04:36:05.259Z,140.63
2018-05-09T04:37:05.200Z,151.88
2018-05-09T04:38:05.077Z,163.13
2018-05-09T04:39:04.989Z,168.75
2018-05-09T04:40:04.899Z,185.63
2018-05-09T04:41:04.805Z,196.88
2018-05-09T04:42:04.780Z,202.50
2018-05-09T04:43:04.625Z,208.13
2018-05-09T04:44:04.536Z,219.38
2018-05-09T04:45:04.448Z,230.63
2018-05-09T04:46:04.352Z,247.50
2018-05-09T04:47:04.295Z,264.38
2018-05-09T04:48:04.173Z,281.25
2018-05-09T04:49:04.081Z,292.50
2018-05-09T04:50:04.084Z,292.50
2018-05-09T04:51:03.902Z,286.88
2018-05-09T04:52:03.845Z,298.13
2018-05-09T04:53:03.720Z,326.25
2018-05-09T04:54:03.629Z,331.88
2018-05-09T04:55:03.539Z,320.63
2018-05-09T04:56:03.449Z,326.25
2018-05-09T04:57:05.760Z,320.63
2018-05-09T04:58:03.270Z,320.63
2018-05-09T04:59:03.182Z,298.13
2018-05-09T05:00:03.089Z,298.13
2018-05-09T05:01:03.004Z,298.13
2018-05-09T05:02:02.940Z,286.88
2018-05-09T05:03:02.827Z,292.50
2018-05-09T05:04:02.823Z,298.13
2018-05-09T05:05:02.643Z,303.75
2018-05-09T05:06:02.555Z,320.63
2018-05-09T05:07:02.590Z,337.50
2018-05-09T05:08:02.374Z,348.75
2018-05-09T05:09:02.287Z,365.63
2018-05-09T05:10:02.194Z,365.63
2018-05-09T05:11:02.208Z,376.88
2018-05-09T05:12:02.047Z,410.63
2018-05-09T05:13:01.927Z,472.50
2018-05-09T05:14:01.836Z,495.00
2018-05-09T05:15:01.766Z,466.88
2018-05-09T05:16:01.663Z,388.13
2018-05-09T05:17:01.603Z,354.38
2018-05-09T05:18:01.575Z,337.50
2018-05-09T05:19:01.393Z,337.50
2018-05-09T05:20:01.305Z,337.50
2018-05-09T05:21:01.218Z,337.50
2018-05-09T05:22:01.135Z,331.88
2018-05-09T05:23:01.070Z,331.88
2018-05-09T05:24:00.951Z,337.50
2018-05-09T05:25:00.950Z,326.25
2018-05-09T05:26:00.770Z,320.63
2018-05-09T05:27:00.716Z,320.63
2018-05-09T05:28:00.623Z,303.75
2018-05-09T05:29:00.505Z,298.13
2018-05-09T05:30:00.419Z,286.88
2018-05-09T05:31:00.331Z,275.63
2018-05-09T05:32:00.337Z,270.00
2018-05-09T05:33:00.183Z,264.38
2018-05-09T05:34:00.065Z,264.38
2018-05-09T05:34:59.978Z,264.38
2018-05-09T05:35:59.901Z,264.38
2018-05-09T05:36:59.800Z,275.63
2018-05-09T05:37:59.747Z,270.00
2018-05-09T05:38:59.729Z,298.13
2018-05-09T05:39:59.533Z,298.13
2018-05-09T05:40:59.441Z,275.63
2018-05-09T05:41:59.355Z,286.88
2018-05-09T05:42:59.301Z,275.63
2018-05-09T05:43:59.178Z,286.88
2018-05-09T05:44:59.208Z,343.13
2018-05-09T05:45:59.095Z,545.63
2018-05-09T05:46:58.913Z,472.50
2018-05-09T05:47:58.861Z,360.00
2018-05-09T05:48:58.738Z,388.13
2018-05-09T05:49:58.646Z,433.13
2018-05-09T05:50:58.561Z,433.13
2018-05-09T05:51:58.487Z,393.75
2018-05-09T05:52:58.505Z,337.50
2018-05-09T05:53:58.300Z,343.13
2018-05-09T05:54:58.213Z,382.50
2018-05-09T05:55:58.140Z,348.75
2018-05-09T05:56:58.032Z,337.50
2018-05-09T05:57:57.970Z,376.88
2018-05-09T05:58:57.949Z,405.00
2018-05-09T05:59:57.775Z,399.38
2018-05-09T06:00:57.679Z,388.13
2018-05-09T06:01:57.591Z,348.75
2018-05-09T06:02:57.534Z,326.25
2018-05-09T06:03:57.413Z,326.25
2018-05-09T06:04:57.330Z,331.88
2018-05-09T06:05:57.241Z,315.00
2018-05-09T06:06:57.150Z,315.00
2018-05-09T06:07:57.176Z,315.00
2018-05-09T06:08:56.977Z,337.50
2018-05-09T06:09:56.893Z,337.50
2018-05-09T06:10:56.804Z,331.88
2018-05-09T06:11:56.716Z,326.25
2018-05-09T06:12:56.658Z,326.25
2018-05-09T06:13:56.539Z,326.25
2018-05-09T06:14:56.452Z,326.25
2018-05-09T06:15:56.363Z,331.88
2018-05-09T06:16:56.275Z,337.50
2018-05-09T06:17:56.220Z,337.50
2018-05-09T06:18:56.110Z,348.75
2018-05-09T06:19:56.011Z,354.38
2018-05-09T06:20:55.925Z,354.38
2018-05-09T06:21:55.836Z,365.63
2018-05-09T06:22:55.779Z,382.50
2018-05-09T06:23:55.727Z,405.00
2018-05-09T06:24:55.573Z,371.25
2018-05-09T06:25:55.487Z,388.13
2018-05-09T06:26:55.397Z,410.63
2018-05-09T06:27:55.344Z,399.38
2018-05-09T06:28:55.224Z,444.38
2018-05-09T06:29:55.138Z,596.25
2018-05-09T06:30:55.134Z,416.25
2018-05-09T06:31:54.957Z,506.25
2018-05-09T06:32:54.903Z,416.25
2018-05-09T06:33:54.780Z,438.75
2018-05-09T06:34:54.697Z,478.13
2018-05-09T06:35:54.606Z,613.13
2018-05-09T06:36:54.516Z,900.00
2018-05-09T06:37:54.431Z,1192.50
2018-05-09T06:38:54.375Z,1417.50
2018-05-09T06:39:54.249Z,1816.88
2018-05-09T06:40:54.166Z,1625.63
2018-05-09T06:41:54.079Z,1732.50
2018-05-09T06:42:53.994Z,2053.13
2018-05-09T06:43:53.940Z,1895.63
2018-05-09T06:44:53.817Z,1828.13
2018-05-09T06:45:53.726Z,2036.25
2018-05-09T06:46:53.639Z,1805.63
2018-05-09T06:47:53.555Z,2058.75
2018-05-09T06:48:53.501Z,1856.25
2018-05-09T06:49:53.425Z,1777.50
2018-05-09T06:50:53.295Z,1951.88
2018-05-09T06:51:53.205Z,1856.25
2018-05-09T06:52:53.120Z,1980.00
2018-05-09T06:53:53.064Z,1985.63
2018-05-09T06:54:52.954Z,2148.75
2018-05-09T06:55:52.861Z,2182.50
2018-05-09T06:56:52.779Z,2019.38
2018-05-09T06:57:52.692Z,2041.88
2018-05-09T06:58:52.639Z,2030.63
2018-05-09T06:59:52.553Z,1929.38
2018-05-09T07:00:52.436Z,2514.38
2018-05-09T07:01:52.352Z,2345.63
2018-05-09T07:02:52.273Z,2413.13
2018-05-09T07:03:52.214Z,2401.88
2018-05-09T07:04:52.101Z,2716.88
2018-05-09T07:05:52.015Z,2143.13
2018-05-09T07:06:51.934Z,2120.63
2018-05-09T07:07:51.847Z,2098.13
2018-05-09T07:08:51.793Z,2278.13
2018-05-09T07:09:51.689Z,2126.25
2018-05-09T07:10:51.599Z,2475.00
2018-05-09T07:11:51.513Z,2368.13
2018-05-09T07:12:51.436Z,1912.50
2018-05-09T07:13:51.396Z,2700.00
2018-05-09T07:14:51.265Z,2441.25
2018-05-09T07:15:51.179Z,2728.13
2018-05-09T07:16:51.099Z,2458.13
2018-05-09T07:17:51.018Z,2469.38
2018-05-09T07:18:50.966Z,2666.25
2018-05-09T07:19:50.850Z,2671.88
2018-05-09T07:20:50.768Z,2536.88
2018-05-09T07:21:50.698Z,2593.13
2018-05-09T07:22:50.604Z,843.75
2018-05-09T07:23:50.555Z,607.50
2018-05-09T07:24:50.440Z,3020.63
2018-05-09T07:25:50.356Z,3037.50
2018-05-09T07:26:50.277Z,2570.63
2018-05-09T07:27:50.189Z,2475.00
2018-05-09T07:28:50.141Z,2677.50
2018-05-09T07:29:50.127Z,2700.00
2018-05-09T07:30:49.948Z,2581.88
2018-05-09T07:31:49.863Z,2379.38
2018-05-09T07:32:49.781Z,2508.75
2018-05-09T07:33:49.727Z,2401.88
2018-05-09T07:34:49.615Z,2716.88
2018-05-09T07:35:49.541Z,2604.38
2018-05-09T07:36:49.559Z,3178.13
2018-05-09T07:37:49.369Z,781.88
2018-05-09T07:38:49.316Z,1383.75
2018-05-09T07:39:49.209Z,956.25
2018-05-09T07:40:49.124Z,2548.13
2018-05-09T07:41:49.041Z,3037.50
2018-05-09T07:42:48.959Z,2671.88
2018-05-09T07:43:48.977Z,2520.00
2018-05-09T07:44:48.823Z,2345.63
2018-05-09T07:45:48.713Z,2300.63
2018-05-09T07:46:48.633Z,2435.63
2018-05-09T07:47:48.595Z,2053.13
2018-05-09T07:48:48.466Z,2818.13
2018-05-09T07:49:48.419Z,2733.75
2018-05-09T07:50:48.392Z,2666.25
2018-05-09T07:51:48.220Z,2362.50
2018-05-09T07:52:48.139Z,1018.13
2018-05-09T07:53:48.060Z,2851.88
2018-05-09T07:54:48.004Z,3048.75
2018-05-09T07:55:47.893Z,2700.00
2018-05-09T07:56:47.811Z,2565.00
2018-05-09T07:57:47.823Z,3020.63
2018-05-09T07:58:47.646Z,2413.13
2018-05-09T07:59:47.594Z,2610.00
2018-05-09T08:00:47.485Z,2784.38
2018-05-09T08:01:47.401Z,3223.13
2018-05-09T08:02:47.321Z,3290.63
2018-05-09T08:03:47.237Z,3386.25
2018-05-09T08:04:47.281Z,3380.63
2018-05-09T08:05:47.073Z,2801.25
2018-05-09T08:06:46.995Z,3037.50
2018-05-09T08:07:46.912Z,2581.88
2018-05-09T08:08:46.830Z,3465.00
2018-05-09T08:09:46.781Z,2570.63
2018-05-09T08:10:46.681Z,3262.50
2018-05-09T08:11:46.698Z,3060.00
2018-05-09T08:12:46.555Z,2896.88
2018-05-09T08:13:46.425Z,3099.38
2018-05-09T08:14:46.374Z,3459.38
2018-05-09T08:15:46.262Z,2840.63
2018-05-09T08:16:46.186Z,2767.50
2018-05-09T08:17:46.101Z,1569.38
2018-05-09T08:18:46.115Z,2733.75
2018-05-09T08:19:45.972Z,888.75
2018-05-09T08:20:45.859Z,3082.50
2018-05-09T08:21:45.780Z,1181.25
2018-05-09T08:22:45.698Z,1670.63
2018-05-09T08:23:45.705Z,1012.50
2018-05-09T08:24:45.574Z,3622.50
2018-05-09T08:25:45.554Z,1276.88
2018-05-09T08:26:45.385Z,1260.00
2018-05-09T08:27:45.295Z,2480.63
2018-05-09T08:28:45.216Z,1777.50
2018-05-09T08:29:45.164Z,1096.88
2018-05-09T08:30:45.053Z,2531.25
2018-05-09T08:31:44.973Z,945.00
2018-05-09T08:32:44.987Z,866.25
2018-05-09T08:33:44.824Z,3431.25
2018-05-09T08:34:44.765Z,4348.13
2018-05-09T08:35:44.648Z,1108.13
2018-05-09T08:36:44.598Z,1023.75
2018-05-09T08:37:44.489Z,1485.00
2018-05-09T08:38:44.411Z,2733.75
2018-05-09T08:39:44.457Z,3391.88
2018-05-09T08:40:44.249Z,3526.88
2018-05-09T08:41:44.165Z,3774.38
2018-05-09T08:42:44.087Z,3796.88
2018-05-09T08:43:44.059Z,4443.75
2018-05-09T08:44:43.956Z,2795.63
2018-05-09T08:45:43.845Z,3296.25
2018-05-09T08:46:43.761Z,4432.50
2018-05-09T08:47:43.684Z,3341.25
2018-05-09T08:48:43.601Z,3639.38
2018-05-09T08:49:43.528Z,3583.13
2018-05-09T08:50:43.476Z,3076.88
2018-05-09T08:51:43.363Z,3386.25
2018-05-09T08:52:43.282Z,3217.50
2018-05-09T08:53:43.203Z,3656.25
2018-05-09T08:54:43.127Z,4156.88
2018-05-09T08:55:43.075Z,4246.88
2018-05-09T08:56:42.964Z,4128.75
2018-05-09T08:57:42.883Z,3403.13
2018-05-09T08:58:42.805Z,3639.38
2018-05-09T08:59:42.729Z,3971.25
2018-05-09T09:00:42.678Z,3858.75
2018-05-09T09:01:42.570Z,4168.13
2018-05-09T09:02:42.777Z,3746.25
2018-05-09T09:03:42.411Z,3881.25
2018-05-09T09:04:42.333Z,3813.75
2018-05-09T09:05:42.287Z,3948.75
2018-05-09T09:06:42.176Z,3723.75
2018-05-09T09:07:42.193Z,2930.63
2018-05-09T09:08:42.020Z,4325.63
2018-05-09T09:09:41.942Z,4111.88
2018-05-09T09:10:41.898Z,3960.00
2018-05-09T09:11:41.785Z,4033.13
2018-05-09T09:12:41.710Z,3718.13
2018-05-09T09:13:41.635Z,3369.38
2018-05-09T09:14:41.554Z,4370.63
2018-05-09T09:15:41.570Z,3853.13
2018-05-09T09:16:41.396Z,3965.63
2018-05-09T09:17:41.323Z,4438.13
2018-05-09T09:18:41.260Z,849.38
2018-05-09T09:19:41.165Z,776.25
2018-05-09T09:20:41.120Z,826.88
2018-05-09T09:21:41.012Z,1642.50
2018-05-09T09:22:40.933Z,3943.13
2018-05-09T09:23:40.856Z,4393.13
2018-05-09T09:24:40.779Z,3538.13
2018-05-09T09:25:40.728Z,3746.25
2018-05-09T09:26:40.621Z,3656.25
2018-05-09T09:27:40.541Z,4218.75
2018-05-09T09:28:40.467Z,1305.00
2018-05-09T09:29:40.388Z,3341.25
2018-05-09T09:30:40.343Z,3740.63
2018-05-09T09:31:40.235Z,3588.75
2018-05-09T09:32:40.153Z,4162.50
2018-05-09T09:33:40.075Z,4612.50
2018-05-09T09:34:39.995Z,3003.75
2018-05-09T09:35:40.051Z,1091.25
2018-05-09T09:36:39.840Z,3960.00
2018-05-09T09:37:39.759Z,4168.13
2018-05-09T09:38:39.679Z,4516.88
2018-05-09T09:39:39.603Z,4151.25
2018-05-09T09:40:39.557Z,4016.25
2018-05-09T09:41:39.447Z,3780.00
2018-05-09T09:42:39.458Z,1552.50
2018-05-09T09:43:39.291Z,1383.75
2018-05-09T09:44:39.208Z,1158.75
2018-05-09T09:45:39.158Z,1018.13
2018-05-09T09:46:39.052Z,916.88
2018-05-09T09:47:38.972Z,871.88
2018-05-09T09:48:38.891Z,826.88
2018-05-09T09:49:38.911Z,781.88
2018-05-09T09:50:38.795Z,810.00
2018-05-09T09:51:38.653Z,832.50
2018-05-09T09:52:38.576Z,832.50
2018-05-09T09:53:38.497Z,804.38
2018-05-09T09:54:38.418Z,765.00
2018-05-09T09:55:38.368Z,742.50
2018-05-09T09:56:38.366Z,731.25
2018-05-09T09:57:38.177Z,781.88
2018-05-09T09:58:38.098Z,838.13
2018-05-09T09:59:38.023Z,900.00
2018-05-09T10:00:37.938Z,990.00
2018-05-09T10:01:37.915Z,1063.13
2018-05-09T10:02:37.775Z,1434.38
2018-05-09T10:03:37.795Z,4770.00
2018-05-09T10:04:37.612Z,4646.25
2018-05-09T10:05:37.532Z,4241.25
2018-05-09T10:06:37.485Z,4016.25
2018-05-09T10:07:37.368Z,4438.13
2018-05-09T10:08:37.287Z,3633.75
2018-05-09T10:09:37.206Z,4185.00
2018-05-09T10:10:37.227Z,5293.13
2018-05-09T10:11:37.074Z,4584.38
2018-05-09T10:12:36.963Z,1726.88
2018-05-09T10:13:36.884Z,1434.38
2018-05-09T10:14:36.805Z,1867.50
2018-05-09T10:15:36.721Z,3853.13
2018-05-09T10:16:36.673Z,3076.88
2018-05-09T10:17:36.665Z,815.63
2018-05-09T10:18:36.482Z,781.88
2018-05-09T10:19:36.397Z,888.75
2018-05-09T10:20:36.320Z,911.25
2018-05-09T10:21:36.268Z,905.63
2018-05-09T10:22:36.155Z,4010.63
2018-05-09T10:23:36.076Z,4370.63
2018-05-09T10:24:36.086Z,4680.00
2018-05-09T10:25:35.910Z,3892.50
2018-05-09T10:26:35.859Z,4410.00
2018-05-09T10:27:35.748Z,4353.75
2018-05-09T10:28:35.666Z,3605.63
2018-05-09T10:29:35.587Z,5135.63
2018-05-09T10:30:35.502Z,5073.75
2018-05-09T10:31:35.497Z,5574.38
2018-05-09T10:32:35.345Z,4775.63
2018-05-09T10:33:35.263Z,4140.00
2018-05-09T10:34:35.182Z,4426.88
2018-05-09T10:35:35.102Z,4291.88
2018-05-09T10:36:35.053Z,4376.25
2018-05-09T10:37:34.942Z,3622.50
2018-05-09T10:38:34.864Z,4837.50
2018-05-09T10:39:34.780Z,4297.50
2018-05-09T10:40:34.707Z,3999.38
2018-05-09T10:41:34.654Z,3875.63
2018-05-09T10:42:34.574Z,4044.38
2018-05-09T10:43:34.558Z,2458.13
2018-05-09T10:44:34.390Z,2885.63
2018-05-09T10:45:34.307Z,3999.38
2018-05-09T10:46:34.265Z,4005.00
2018-05-09T10:47:34.160Z,3560.63
2018-05-09T10:48:34.071Z,4033.13
2018-05-09T10:49:33.991Z,4027.50
2018-05-09T10:50:33.912Z,3886.88
2018-05-09T10:51:33.864Z,3386.25
2018-05-09T10:52:33.755Z,4471.88
2018-05-09T10:53:33.675Z,4291.88
2018-05-09T10:54:33.666Z,5478.75
2018-05-09T10:55:33.519Z,2874.38
2018-05-09T10:56:33.474Z,3976.88
2018-05-09T10:57:33.360Z,1046.25
2018-05-09T10:58:33.282Z,1046.25
2018-05-09T10:59:33.203Z,1085.63
2018-05-09T11:00:33.124Z,798.75
2018-05-09T11:01:33.078Z,748.13
2018-05-09T11:02:32.965Z,624.38
2018-05-09T11:03:32.886Z,849.38
2018-05-09T11:04:32.806Z,3335.63
2018-05-09T11:05:32.729Z,5163.75
2018-05-09T11:06:32.678Z,5101.88
2018-05-09T11:07:32.566Z,5096.25
2018-05-09T11:08:32.488Z,5281.88
2018-05-09T11:09:32.408Z,5321.25
2018-05-09T11:10:32.344Z,1597.50
2018-05-09T11:11:32.248Z,1108.13
2018-05-09T11:12:32.200Z,1096.88
2018-05-09T11:13:32.084Z,5000.63
2018-05-09T11:14:32.012Z,5085.00
2018-05-09T11:15:31.922Z,1316.25
2018-05-09T11:16:31.876Z,2115.00
2018-05-09T11:17:31.794Z,5096.25
2018-05-09T11:18:31.687Z,1147.50
2018-05-09T11:19:31.604Z,815.63
2018-05-09T11:20:31.526Z,736.88
2018-05-09T11:21:31.448Z,916.88
2018-05-09T11:22:31.400Z,5175.00
2018-05-09T11:23:31.284Z,5141.25
2018-05-09T11:24:31.262Z,4781.25
2018-05-09T11:25:31.123Z,5130.00
2018-05-09T11:26:31.045Z,5169.38
2018-05-09T11:27:30.993Z,5259.38
2018-05-09T11:28:30.882Z,5293.13
2018-05-09T11:29:30.801Z,5270.63
2018-05-09T11:30:30.721Z,911.25
2018-05-09T11:31:30.639Z,956.25
2018-05-09T11:32:30.590Z,939.38
2018-05-09T11:33:30.516Z,4837.50
2018-05-09T11:34:30.399Z,1738.13
2018-05-09T11:35:30.318Z,1147.50
2018-05-09T11:36:30.241Z,2767.50
2018-05-09T11:37:30.276Z,1209.38
2018-05-09T11:38:30.080Z,961.88
2018-05-09T11:39:29.992Z,1940.63
2018-05-09T11:40:29.915Z,911.25
2018-05-09T11:41:29.831Z,1051.88
2018-05-09T11:42:29.780Z,3093.75
2018-05-09T11:43:29.667Z,5310.00
2018-05-09T11:44:29.589Z,5141.25
2018-05-09T11:45:29.504Z,3425.63
2018-05-09T11:46:29.425Z,1130.63
2018-05-09T11:47:29.470Z,5045.63
2018-05-09T11:48:29.258Z,5023.13
2018-05-09T11:49:29.176Z,5017.50
2018-05-09T11:50:29.094Z,4950.00
2018-05-09T11:51:29.016Z,4927.50
2018-05-09T11:52:28.960Z,4910.63
2018-05-09T11:53:28.852Z,3954.38
2018-05-09T11:54:28.769Z,3487.50
2018-05-09T11:55:28.692Z,770.63
2018-05-09T11:56:28.613Z,2407.50
2018-05-09T11:57:28.561Z,596.25
2018-05-09T11:58:28.448Z,579.38
2018-05-09T11:59:28.367Z,556.88
2018-05-09T12:00:28.283Z,545.63
2018-05-09T12:01:28.297Z,590.63
2018-05-09T12:02:28.212Z,4702.50
2018-05-09T12:03:28.041Z,4685.63
2018-05-09T12:04:27.960Z,4758.75
2018-05-09T12:05:27.885Z,4758.75
2018-05-09T12:06:27.799Z,4815.00
2018-05-09T12:07:27.753Z,4899.38
2018-05-09T12:08:27.729Z,4921.88
2018-05-09T12:09:27.556Z,4921.88
2018-05-09T12:10:27.564Z,4432.50
2018-05-09T12:11:27.392Z,4747.50
2018-05-09T12:12:27.340Z,4905.00
2018-05-09T12:13:27.228Z,3656.25
2018-05-09T12:14:27.155Z,1001.25
2018-05-09T12:15:27.173Z,1878.75
2018-05-09T12:16:26.984Z,3690.00
2018-05-09T12:17:26.937Z,4803.75
2018-05-09T12:18:26.828Z,4882.50
2018-05-09T12:19:26.744Z,4826.25
2018-05-09T12:20:26.667Z,4758.75
2018-05-09T12:21:26.586Z,4753.13
2018-05-09T12:22:26.630Z,4888.13
2018-05-09T12:23:26.425Z,4905.00
2018-05-09T12:24:26.423Z,4809.38
2018-05-09T12:25:26.263Z,4770.00
2018-05-09T12:26:26.184Z,4758.75
2018-05-09T12:27:26.104Z,4809.38
2018-05-09T12:28:26.055Z,4820.63
2018-05-09T12:29:26.036Z,4854.38
2018-05-09T12:30:25.864Z,4944.38
2018-05-09T12:31:25.786Z,4927.50
2018-05-09T12:32:25.710Z,4871.25